createdAt,value
2023-03-18T00:04:18.587Z,11.13
2023-03-18T00:09:22.907Z,11.10
2023-03-18T00:14:28.036Z,10.63
2023-03-18T00:19:32.614Z,10.27
2023-03-18T00:24:35.890Z,13.20
2023-03-18T00:29:41.670Z,13.10
2023-03-18T00:34:45.291Z,12.07
2023-03-18T00:39:50.805Z,10.00
2023-03-18T00:44:55.361Z,12.37
2023-03-18T00:49:58.632Z,14.90
2023-03-18T00:55:02.332Z,15.53
2023-03-18T01:00:08.444Z,11.87
2023-03-18T01:05:13.096Z,10.63
2023-03-18T01:10:18.235Z,12.43
2023-03-18T01:15:23.527Z,11.13
2023-03-18T01:20:26.836Z,11.63
2023-03-18T01:25:32.900Z,11.13
2023-03-18T01:30:38.333Z,12.00
2023-03-18T01:35:42.964Z,14.47
2023-03-18T01:40:46.078Z,12.83
2023-03-18T01:45:57.430Z,12.53
2023-03-18T01:51:04.617Z,12.30
2023-03-18T01:56:10.066Z,11.10
2023-03-18T02:01:20.166Z,12.53
2023-03-18T02:06:25.801Z,9.13
2023-03-18T02:11:40.340Z,10.73
2023-03-18T02:16:52.945Z,12.83
2023-03-18T02:22:06.450Z,10.03
2023-03-18T02:27:20.295Z,11.80
2023-03-18T02:32:29.423Z,11.90
2023-03-18T02:37:32.568Z,9.27
2023-03-18T02:42:37.974Z,10.33
2023-03-18T02:47:43.782Z,9.17
2023-03-18T02:52:47.464Z,9.50
2023-03-18T02:57:52.077Z,9.47
2023-03-18T03:02:56.389Z,10.10
2023-03-18T03:07:59.681Z,11.43
2023-03-18T03:13:06.379Z,9.00
2023-03-18T03:18:10.483Z,10.33
2023-03-18T03:23:16.918Z,11.40
2023-03-18T03:28:21.835Z,10.80
2023-03-18T03:33:25.676Z,12.87
2023-03-18T03:38:29.484Z,13.27
2023-03-18T03:43:34.148Z,16.20
2023-03-18T03:48:37.305Z,14.23
2023-03-18T03:53:43.929Z,12.90
2023-03-18T03:58:49.049Z,9.60
2023-03-18T04:03:53.685Z,13.20
2023-03-18T04:08:57.373Z,12.90
2023-03-18T04:14:03.041Z,16.07
2023-03-18T04:19:07.119Z,11.63
2023-03-18T04:24:11.785Z,12.27
2023-03-18T04:29:21.774Z,13.70
2023-03-18T04:34:25.470Z,12.93
2023-03-18T04:39:28.802Z,13.83
2023-03-18T04:44:33.407Z,12.43
2023-03-18T04:49:37.806Z,13.67
2023-03-18T04:54:42.938Z,14.17
2023-03-18T04:59:47.846Z,11.10
2023-03-18T05:04:51.844Z,13.33
2023-03-18T05:09:55.842Z,11.23
2023-03-18T05:15:00.549Z,12.30
2023-03-18T05:20:04.489Z,12.90
2023-03-18T05:25:11.249Z,14.00
2023-03-18T05:30:17.507Z,16.23
2023-03-18T05:35:26.460Z,14.97
2023-03-18T05:40:30.586Z,15.03
2023-03-18T05:45:58.033Z,15.87
2023-03-18T05:51:29.321Z,13.03
2023-03-18T05:56:33.143Z,14.17
2023-03-18T06:01:42.344Z,12.07
2023-03-18T06:06:46.105Z,14.27
2023-03-18T06:11:52.213Z,14.73
2023-03-18T06:16:57.088Z,13.47
2023-03-18T06:22:00.491Z,15.93
2023-03-18T06:27:03.946Z,14.57
2023-03-18T06:32:10.241Z,16.37
2023-03-18T06:37:15.288Z,15.83
2023-03-18T06:42:19.196Z,14.77
2023-03-18T06:47:44.186Z,16.00
2023-03-18T06:52:48.343Z,17.50
2023-03-18T06:57:57.628Z,13.13
2023-03-18T07:03:08.548Z,13.63
2023-03-18T07:08:13.931Z,13.50
2023-03-18T07:13:17.415Z,16.60
2023-03-18T07:18:21.938Z,16.10
2023-03-18T07:23:25.191Z,14.20
2023-03-18T07:28:28.817Z,14.83
2023-03-18T07:33:34.483Z,13.17
2023-03-18T07:38:37.686Z,14.60
2023-03-18T07:43:41.416Z,13.53
2023-03-18T07:48:46.678Z,15.30
2023-03-18T07:53:52.299Z,17.83
2023-03-18T07:58:55.378Z,15.77
2023-03-18T08:04:00.000Z,15.40
2023-03-18T08:09:03.776Z,15.90
2023-03-18T08:14:07.345Z,17.23
2023-03-18T08:19:12.214Z,16.93
2023-03-18T08:24:15.500Z,12.97
2023-03-18T08:29:18.765Z,14.03
2023-03-18T08:34:23.574Z,14.20
2023-03-18T08:39:27.124Z,15.10
2023-03-18T08:44:31.022Z,13.73
2023-03-18T08:49:37.772Z,12.13
2023-03-18T08:54:40.884Z,13.80
2023-03-18T08:59:43.998Z,11.87
2023-03-18T09:04:50.067Z,12.23
2023-03-18T09:09:54.205Z,12.70
2023-03-18T09:14:57.618Z,10.47
2023-03-18T09:20:03.090Z,9.07
2023-03-18T09:25:07.089Z,10.10
2023-03-18T09:30:12.080Z,9.97
2023-03-18T09:35:17.057Z,9.67
2023-03-18T09:40:23.916Z,9.57
2023-03-18T09:45:32.384Z,8.63
2023-03-18T09:50:43.958Z,10.87
2023-03-18T09:55:53.146Z,8.83
2023-03-18T10:01:01.928Z,9.80
2023-03-18T10:06:17.128Z,8.30
2023-03-18T10:11:27.884Z,8.70
2023-03-18T10:16:38.670Z,7.50
2023-03-18T10:21:53.188Z,8.00
2023-03-18T10:27:08.986Z,8.55
2023-03-18T10:32:24.610Z,7.32
2023-03-18T10:37:42.503Z,6.20
2023-03-18T10:42:46.397Z,7.30
2023-03-18T10:47:56.598Z,6.07
2023-03-18T10:53:08.717Z,4.68
2023-03-18T10:58:17.338Z,6.33
2023-03-18T11:03:25.687Z,5.82
2023-03-18T11:08:34.581Z,5.60
2023-03-18T11:13:37.835Z,9.68
2023-03-18T11:18:53.657Z,7.38
2023-03-18T11:24:21.027Z,5.47
2023-03-18T11:29:29.195Z,6.60
2023-03-18T11:34:35.051Z,4.75
2023-03-18T11:39:41.897Z,5.80
2023-03-18T11:44:45.038Z,6.15
2023-03-18T11:49:48.022Z,5.05
2023-03-18T11:55:26.270Z,4.97
2023-03-18T12:00:34.694Z,5.75
2023-03-18T12:05:54.876Z,5.85
2023-03-18T12:11:07.715Z,4.43
2023-03-18T12:16:22.147Z,4.55
2023-03-18T12:21:44.701Z,3.50
2023-03-18T12:26:56.662Z,5.88
2023-03-18T12:32:09.385Z,5.25
2023-03-18T12:37:32.245Z,3.38
2023-03-18T12:42:54.693Z,5.47
2023-03-18T12:48:02.475Z,6.45
2023-03-18T12:53:14.831Z,3.03
2023-03-18T12:58:24.419Z,8.70
2023-03-18T13:03:34.336Z,4.57
2023-03-18T13:08:54.459Z,3.78
2023-03-18T13:14:04.843Z,3.58
2023-03-18T13:19:10.801Z,5.90
2023-03-18T13:24:42.591Z,3.47
2023-03-18T13:29:55.778Z,2.90
2023-03-18T13:35:23.213Z,2.28
2023-03-18T13:40:46.447Z,3.08
2023-03-18T13:45:56.474Z,3.53
2023-03-18T13:51:00.859Z,2.28
2023-03-18T13:56:06.423Z,2.85
2023-03-18T14:01:33.114Z,3.95
2023-03-18T14:06:56.789Z,3.63
2023-03-18T14:12:05.496Z,3.10
2023-03-18T14:17:20.227Z,2.88
2023-03-18T14:22:29.362Z,3.78
2023-03-18T14:27:32.620Z,2.47
2023-03-18T14:32:40.901Z,2.50
2023-03-18T14:38:02.713Z,5.13
2023-03-18T14:43:11.660Z,2.35
2023-03-18T14:48:22.664Z,2.30
2023-03-18T14:53:30.622Z,3.10
2023-03-18T14:58:35.892Z,3.28
2023-03-18T15:03:44.847Z,1.52
2023-03-18T15:08:59.805Z,2.95
2023-03-18T15:14:03.422Z,1.67
2023-03-18T15:19:12.656Z,2.25
2023-03-18T15:24:19.761Z,4.53
2023-03-18T15:29:29.906Z,4.35
2023-03-18T15:34:35.780Z,1.83
2023-03-18T15:39:41.042Z,1.70
2023-03-18T15:44:46.568Z,5.28
2023-03-18T15:49:55.685Z,1.83
2023-03-18T15:54:58.871Z,1.60
2023-03-18T16:00:02.535Z,1.95
2023-03-18T16:05:20.696Z,1.45
2023-03-18T16:10:26.540Z,4.32
2023-03-18T16:15:32.020Z,2.47
2023-03-18T16:20:37.022Z,5.18
2023-03-18T16:25:41.826Z,2.03
2023-03-18T16:30:45.408Z,4.43
2023-03-18T16:35:55.622Z,2.80
2023-03-18T16:40:59.333Z,2.60
2023-03-18T16:46:05.843Z,3.10
2023-03-18T16:51:10.828Z,3.03
2023-03-18T16:56:17.894Z,3.03
2023-03-18T17:01:21.532Z,2.30
2023-03-18T17:06:26.510Z,3.60
2023-03-18T17:11:29.527Z,2.65
2023-03-18T17:16:32.791Z,1.52
2023-03-18T17:21:38.107Z,2.87
2023-03-18T17:26:43.250Z,2.10
2023-03-18T17:31:46.684Z,3.77
2023-03-18T17:36:53.898Z,3.40
2023-03-18T17:41:57.221Z,2.20
2023-03-18T17:47:01.245Z,3.50
2023-03-18T17:52:06.276Z,2.90
2023-03-18T17:57:14.464Z,2.80
2023-03-18T18:02:20.573Z,4.00
2023-03-18T18:07:25.518Z,2.27
2023-03-18T18:12:28.774Z,2.20
2023-03-18T18:17:32.546Z,3.63
2023-03-18T18:22:37.833Z,4.47
2023-03-18T18:27:41.969Z,2.07
2023-03-18T18:32:45.449Z,3.17
2023-03-18T18:37:51.189Z,2.27
2023-03-18T18:42:54.634Z,4.50
2023-03-18T18:47:58.526Z,2.73
2023-03-18T18:53:03.241Z,2.47
2023-03-18T18:58:06.752Z,3.67
2023-03-18T19:03:14.796Z,4.33
2023-03-18T19:08:25.226Z,4.53
2023-03-18T19:13:30.203Z,5.50
2023-03-18T19:18:38.173Z,2.87
2023-03-18T19:23:43.530Z,9.23
2023-03-18T19:29:01.556Z,4.50
2023-03-18T19:34:14.957Z,2.77
2023-03-18T19:39:21.185Z,1.63
2023-03-18T19:44:26.262Z,3.50
2023-03-18T19:49:33.142Z,3.77
2023-03-18T19:54:55.198Z,4.03
2023-03-18T19:59:59.623Z,2.13
2023-03-18T20:05:15.639Z,2.40
2023-03-18T20:10:21.123Z,1.63
2023-03-18T20:15:27.023Z,1.40
2023-03-18T20:20:34.737Z,1.63
2023-03-18T20:25:42.966Z,1.53
2023-03-18T20:30:47.277Z,0.83
2023-03-18T20:35:53.630Z,0.70
2023-03-18T20:40:58.516Z,1.60
2023-03-18T20:46:02.725Z,0.87
2023-03-18T20:51:11.278Z,2.20
2023-03-18T20:56:16.538Z,1.40
2023-03-18T21:01:20.066Z,1.00
2023-03-18T21:06:23.160Z,1.60
2023-03-18T21:11:33.046Z,2.27
2023-03-18T21:16:37.966Z,1.47
2023-03-18T21:21:41.602Z,1.37
2023-03-18T21:27:03.108Z,1.00
2023-03-18T21:32:07.553Z,0.90
2023-03-18T21:37:16.161Z,1.23
2023-03-18T21:42:24.598Z,1.20
2023-03-18T21:47:28.436Z,1.20
2023-03-18T21:52:33.496Z,1.33
2023-03-18T21:57:38.278Z,1.30
2023-03-18T22:02:44.689Z,2.30
2023-03-18T22:07:47.871Z,1.23
2023-03-18T22:12:53.748Z,1.33
2023-03-18T22:17:57.066Z,1.43
2023-03-18T22:23:00.633Z,1.40
2023-03-18T22:28:07.157Z,1.47
2023-03-18T22:33:18.971Z,2.67
2023-03-18T22:38:24.115Z,1.50
2023-03-18T22:43:32.266Z,1.67
2023-03-18T22:48:35.705Z,2.07
2023-03-18T22:53:41.204Z,2.60
2023-03-18T22:58:46.493Z,1.93
2023-03-18T23:03:52.559Z,3.13
2023-03-18T23:08:55.897Z,2.17
2023-03-18T23:14:03.326Z,2.30
2023-03-18T23:19:06.733Z,2.67
2023-03-18T23:24:13.323Z,3.17
2023-03-18T23:29:20.112Z,2.80
2023-03-18T23:34:23.466Z,2.90
2023-03-18T23:39:26.534Z,4.90
2023-03-18T23:44:31.112Z,2.20
2023-03-18T23:49:34.554Z,2.97
2023-03-18T23:54:39.294Z,3.07
2023-03-18T23:59:43.946Z,2.90
